YAYE Airport Information

Runway Information
Runway 13 Length 8527 ft width 98 ft
Elevation 1612 ft Threshold 0 ft Heading 130
Runway 31 Length 8527 ft Width 98 ft
Elevation 1626 ft Threshold 0 ft Heading 310
Airport Frequencies
Type ATIS Name ATIS Frequency 126.55 MHZ
Type CTAF Name CTAF Frequency 126.9 MHZ
Type FSS Name MELBOURNE Frequency 121.85 MHZ
Airport Navaids
Type NDB-DME Name Ayers Rock Frequency 233 KHZ
Airport Weather Information & NOTAM
ADDS - METARS form results

(1947 UTC 27 September 2020)
Data provider http://aviationweather.gov/metar/data/
 
METAR text: YAYE 271900Z AUTO 15005KT 9999 // SCT100 21/M03 Q1015
Conditions at: YAYE (AYERS ROCK , AU) observed 1900 UTC 27 September 2020
Temperature: 21.0°C (70°F)
Dewpoint: -3.0°C (27°F) [RH = 20%]
Pressure (altimeter): 29.97 inches Hg (1015.0 mb)
Winds: from the SSE (150 degrees) at 6 MPH (5 knots; 2.6 m/s)
Visibility: 6 or more miles (10+ km)
Ceiling: at least 12,000 feet AGL
Clouds: scattered clouds at 10000 feet AGL
Weather: no significant weather observed at this time